createdAt,value
2017-12-10T00:00:35.401Z,30
2017-12-10T00:02:40.425Z,31
2017-12-10T00:04:45.561Z,30
2017-12-10T00:06:51.182Z,29
2017-12-10T00:08:56.320Z,30
2017-12-10T00:11:01.805Z,29
2017-12-10T00:13:08.458Z,30
2017-12-10T00:15:14.127Z,30
2017-12-10T00:17:19.020Z,29
2017-12-10T00:19:23.706Z,29
2017-12-10T00:21:28.065Z,29
2017-12-10T00:23:33.832Z,29
2017-12-10T00:25:39.339Z,30
2017-12-10T00:27:44.920Z,29
2017-12-10T00:29:50.948Z,30
2017-12-10T00:31:56.932Z,30
2017-12-10T00:34:03.067Z,30
2017-12-10T00:36:07.758Z,29
2017-12-10T00:38:13.268Z,31
2017-12-10T00:40:19.501Z,28
2017-12-10T00:42:24.165Z,29
2017-12-10T00:44:29.805Z,29
2017-12-10T00:46:34.903Z,29
2017-12-10T00:48:39.944Z,29
2017-12-10T00:50:49.424Z,29
2017-12-10T00:52:55.561Z,30
2017-12-10T00:55:00.341Z,28
2017-12-10T00:57:05.467Z,30
2017-12-10T00:59:09.985Z,29
2017-12-10T01:01:14.895Z,29
2017-12-10T01:03:20.511Z,31
2017-12-10T01:05:25.845Z,29
2017-12-10T01:07:31.104Z,29
2017-12-10T01:09:36.027Z,29
2017-12-10T01:11:41.785Z,28
2017-12-10T01:13:47.363Z,30
2017-12-10T01:15:52.160Z,29
2017-12-10T01:17:57.447Z,30
2017-12-10T01:20:03.665Z,29
2017-12-10T01:22:08.620Z,29
2017-12-10T01:24:14.201Z,29
2017-12-10T01:26:19.481Z,29
2017-12-10T01:28:25.117Z,31
2017-12-10T01:30:30.042Z,29
2017-12-10T01:32:34.366Z,28
2017-12-10T01:34:38.766Z,28
2017-12-10T01:36:43.819Z,29
2017-12-10T01:38:48.241Z,28
2017-12-10T01:40:52.925Z,28
2017-12-10T01:42:57.906Z,30
2017-12-10T01:45:03.226Z,28
2017-12-10T01:47:08.145Z,28
2017-12-10T01:49:12.959Z,28
2017-12-10T01:51:17.482Z,28
2017-12-10T01:53:22.183Z,30
2017-12-10T01:55:26.840Z,30
2017-12-10T01:57:31.656Z,29
2017-12-10T01:59:36.563Z,29
2017-12-10T02:01:42.281Z,29
2017-12-10T02:03:49.038Z,30
2017-12-10T02:05:53.623Z,28
2017-12-10T02:07:58.723Z,28
2017-12-10T02:10:07.235Z,28
2017-12-10T02:12:12.190Z,28
2017-12-10T02:14:17.540Z,28
2017-12-10T02:16:24.052Z,30
2017-12-10T02:18:29.280Z,28
2017-12-10T02:20:34.646Z,29
2017-12-10T02:22:40.040Z,28
2017-12-10T02:24:46.099Z,28
2017-12-10T02:26:50.482Z,28
2017-12-10T02:28:57.127Z,30
2017-12-10T02:31:02.620Z,28
2017-12-10T02:33:07.407Z,27
2017-12-10T02:35:12.198Z,28
2017-12-10T02:37:18.205Z,28
2017-12-10T02:39:22.561Z,28
2017-12-10T02:41:27.404Z,28
2017-12-10T02:43:31.950Z,27
2017-12-10T02:45:36.540Z,28
2017-12-10T02:47:40.967Z,28
2017-12-10T02:49:45.646Z,28
2017-12-10T02:52:05.061Z,28
2017-12-10T02:54:10.159Z,28
2017-12-10T02:56:14.921Z,30
2017-12-10T02:58:20.563Z,28
2017-12-10T03:00:25.496Z,28
2017-12-10T03:02:30.323Z,30
2017-12-10T03:04:35.840Z,28
2017-12-10T03:06:40.502Z,28
2017-12-10T03:08:45.511Z,30
2017-12-10T03:10:58.830Z,28
2017-12-10T03:13:08.677Z,28
2017-12-10T03:15:14.044Z,28
2017-12-10T03:17:20.536Z,28
2017-12-10T03:19:25.446Z,28
2017-12-10T03:21:31.366Z,27
2017-12-10T03:23:36.022Z,27
2017-12-10T03:25:41.666Z,29
2017-12-10T03:27:46.016Z,28
2017-12-10T03:29:50.923Z,28
2017-12-10T03:31:55.721Z,28
2017-12-10T03:34:00.180Z,26
2017-12-10T03:36:04.541Z,28
2017-12-10T03:38:11.859Z,30
2017-12-10T03:40:32.901Z,28
2017-12-10T03:42:38.000Z,28
2017-12-10T03:44:42.300Z,28
2017-12-10T03:46:47.144Z,27
2017-12-10T03:48:53.242Z,26
2017-12-10T03:50:57.983Z,28
2017-12-10T03:53:02.545Z,27
2017-12-10T03:55:06.860Z,27
2017-12-10T03:57:11.460Z,28
2017-12-10T03:59:15.703Z,28
2017-12-10T04:01:29.322Z,28
2017-12-10T04:03:43.399Z,28
2017-12-10T04:05:47.577Z,28
2017-12-10T04:07:52.178Z,29
2017-12-10T04:09:56.494Z,28
2017-12-10T04:12:03.567Z,28
2017-12-10T04:14:07.882Z,27
2017-12-10T04:16:31.048Z,28
2017-12-10T04:18:45.195Z,28
2017-12-10T04:20:58.982Z,28
2017-12-10T04:23:03.183Z,28
2017-12-10T04:25:07.481Z,29
2017-12-10T04:27:11.843Z,28
2017-12-10T04:29:16.249Z,27
2017-12-10T04:31:23.737Z,27
2017-12-10T04:33:28.116Z,29
2017-12-10T04:35:32.449Z,29
2017-12-10T04:37:38.685Z,30
2017-12-10T04:39:43.566Z,27
2017-12-10T04:41:48.199Z,27
2017-12-10T04:43:52.800Z,27
2017-12-10T04:45:59.524Z,29
2017-12-10T04:48:03.840Z,26
2017-12-10T04:50:08.038Z,27
2017-12-10T04:52:12.624Z,29
2017-12-10T04:54:17.620Z,27
2017-12-10T04:56:22.343Z,27
2017-12-10T04:58:26.844Z,27
2017-12-10T05:00:31.135Z,28
2017-12-10T05:02:35.443Z,27
2017-12-10T05:04:40.975Z,27
2017-12-10T05:06:45.740Z,28
2017-12-10T05:08:50.363Z,26
2017-12-10T05:10:54.826Z,28
2017-12-10T05:13:01.599Z,30
2017-12-10T05:15:10.123Z,26
2017-12-10T05:17:15.358Z,26
2017-12-10T05:19:20.057Z,28
2017-12-10T05:21:24.459Z,26
2017-12-10T05:23:28.818Z,28
2017-12-10T05:25:33.570Z,27
2017-12-10T05:27:38.142Z,27
2017-12-10T05:29:42.503Z,27
2017-12-10T05:31:47.124Z,26
2017-12-10T05:33:51.661Z,27
2017-12-10T05:35:56.145Z,27
2017-12-10T05:38:00.500Z,27
2017-12-10T05:40:05.080Z,28
2017-12-10T05:42:10.625Z,29
2017-12-10T05:44:15.839Z,28
2017-12-10T05:46:20.342Z,26
2017-12-10T05:48:24.961Z,27
2017-12-10T05:50:32.143Z,26
2017-12-10T05:52:38.682Z,29
2017-12-10T05:54:43.081Z,27
2017-12-10T05:56:47.619Z,27
2017-12-10T05:58:52.291Z,26
2017-12-10T06:00:56.723Z,27
2017-12-10T06:03:02.384Z,29
2017-12-10T06:05:07.258Z,28
2017-12-10T06:07:11.801Z,26
2017-12-10T06:09:16.143Z,28
2017-12-10T06:11:26.668Z,28
2017-12-10T06:13:31.362Z,26
2017-12-10T06:15:44.352Z,27
2017-12-10T06:17:49.074Z,26
2017-12-10T06:19:54.245Z,28
2017-12-10T06:21:59.099Z,26
2017-12-10T06:24:03.942Z,26
2017-12-10T06:26:08.665Z,27
2017-12-10T06:28:17.803Z,27
2017-12-10T06:30:22.179Z,26
2017-12-10T06:32:31.122Z,26
2017-12-10T06:34:35.562Z,26
2017-12-10T06:36:42.325Z,26
2017-12-10T06:38:47.444Z,27
2017-12-10T06:40:51.921Z,26
2017-12-10T06:42:59.901Z,26
2017-12-10T06:45:06.506Z,29
2017-12-10T06:47:13.097Z,26
2017-12-10T06:49:24.922Z,26
2017-12-10T06:51:29.777Z,26
2017-12-10T06:53:34.502Z,26
2017-12-10T06:55:47.455Z,26
2017-12-10T06:57:52.907Z,26
2017-12-10T06:59:58.719Z,26
2017-12-10T07:02:06.321Z,26
2017-12-10T07:04:15.259Z,28
2017-12-10T07:06:19.859Z,28
2017-12-10T07:08:25.284Z,26
2017-12-10T07:10:34.466Z,26
2017-12-10T07:12:41.383Z,26
2017-12-10T07:14:46.402Z,26
2017-12-10T07:16:50.758Z,26
2017-12-10T07:18:56.257Z,28
2017-12-10T07:21:06.369Z,26
2017-12-10T07:23:13.385Z,26
2017-12-10T07:25:19.105Z,28
2017-12-10T07:27:23.841Z,26
2017-12-10T07:29:32.834Z,26
2017-12-10T07:31:37.784Z,26
2017-12-10T07:33:42.881Z,26
2017-12-10T07:35:47.389Z,26
2017-12-10T07:37:54.860Z,26
2017-12-10T07:39:59.942Z,28
2017-12-10T07:42:04.375Z,26
2017-12-10T07:44:10.711Z,28
2017-12-10T07:46:17.323Z,28
2017-12-10T07:48:24.200Z,28
2017-12-10T07:50:28.722Z,26
2017-12-10T07:52:35.461Z,28
2017-12-10T07:54:39.759Z,27
2017-12-10T07:56:48.706Z,26
2017-12-10T07:58:53.783Z,28
2017-12-10T08:00:59.619Z,27
2017-12-10T08:03:07.184Z,26
2017-12-10T08:05:13.949Z,26
2017-12-10T08:07:19.936Z,26
2017-12-10T08:09:25.250Z,28
2017-12-10T08:11:33.500Z,26
2017-12-10T08:13:39.325Z,26
2017-12-10T08:15:44.278Z,27
2017-12-10T08:17:50.144Z,26
2017-12-10T08:19:56.500Z,28
2017-12-10T08:22:05.499Z,26
2017-12-10T08:24:11.063Z,26
2017-12-10T08:26:16.801Z,26
2017-12-10T08:28:28.805Z,26
2017-12-10T08:30:34.401Z,25
2017-12-10T08:32:39.219Z,28
2017-12-10T08:34:47.001Z,28
2017-12-10T08:36:52.861Z,25
2017-12-10T08:38:58.485Z,26
2017-12-10T08:41:08.122Z,28
2017-12-10T08:43:13.902Z,26
2017-12-10T08:45:25.782Z,26
2017-12-10T08:47:37.700Z,27
2017-12-10T08:49:44.258Z,26
2017-12-10T08:51:54.337Z,28
2017-12-10T08:54:00.142Z,26
2017-12-10T08:56:05.820Z,26
2017-12-10T08:58:19.612Z,25
2017-12-10T09:00:33.687Z,27
2017-12-10T09:02:40.005Z,28
2017-12-10T09:04:48.756Z,25
2017-12-10T09:07:08.840Z,26
2017-12-10T09:09:14.602Z,28
2017-12-10T09:11:27.505Z,28
2017-12-10T09:13:45.169Z,26
2017-12-10T09:15:55.177Z,26
2017-12-10T09:18:01.902Z,28
2017-12-10T09:20:08.024Z,26
2017-12-10T09:22:15.880Z,28
2017-12-10T09:24:33.638Z,28
2017-12-10T09:26:39.764Z,26
2017-12-10T09:28:45.749Z,28
2017-12-10T09:30:58.616Z,26
2017-12-10T09:33:07.604Z,26
2017-12-10T09:35:14.900Z,26
2017-12-10T09:37:22.006Z,24
2017-12-10T09:39:28.189Z,28
2017-12-10T09:41:37.992Z,26
2017-12-10T09:43:52.222Z,25
2017-12-10T09:47:59.836Z,27
2017-12-10T09:50:09.834Z,25
2017-12-10T09:52:21.591Z,27
2017-12-10T09:54:28.848Z,26
2017-12-10T09:56:36.207Z,26
2017-12-10T09:58:42.846Z,28
2017-12-10T10:00:50.097Z,26
2017-12-10T10:02:56.457Z,27
2017-12-10T10:05:03.041Z,26
2017-12-10T10:07:09.380Z,26
2017-12-10T10:09:18.435Z,27
2017-12-10T10:11:25.259Z,28
2017-12-10T10:13:36.536Z,26
2017-12-10T10:15:52.801Z,25
2017-12-10T10:18:00.706Z,25
2017-12-10T10:20:08.220Z,27
2017-12-10T10:22:15.615Z,24
2017-12-10T10:24:23.121Z,27
2017-12-10T10:26:33.346Z,26
2017-12-10T10:28:40.279Z,27
2017-12-10T10:30:47.665Z,28
2017-12-10T10:32:58.240Z,27
2017-12-10T10:35:10.099Z,28
2017-12-10T10:37:21.908Z,25
2017-12-10T10:39:34.542Z,26
2017-12-10T10:41:47.040Z,26
2017-12-10T10:43:54.264Z,26
2017-12-10T10:46:02.579Z,28
2017-12-10T10:48:13.684Z,27
2017-12-10T10:50:27.522Z,26
2017-12-10T10:52:34.182Z,27
2017-12-10T10:54:42.743Z,26
2017-12-10T10:56:50.660Z,27
2017-12-10T10:58:57.434Z,27
2017-12-10T11:01:05.437Z,28
2017-12-10T11:03:10.525Z,25
2017-12-10T11:05:17.361Z,26
2017-12-10T11:07:23.265Z,27
2017-12-10T11:09:30.124Z,26
2017-12-10T11:11:36.483Z,24
2017-12-10T11:13:42.650Z,25
2017-12-10T11:15:48.403Z,27
2017-12-10T11:17:58.711Z,27
2017-12-10T11:20:05.220Z,25
2017-12-10T11:22:11.378Z,24
2017-12-10T11:24:33.396Z,26
2017-12-10T11:26:47.228Z,27
2017-12-10T11:28:56.040Z,26
2017-12-10T11:31:04.084Z,25
2017-12-10T11:33:15.479Z,25
2017-12-10T11:35:50.206Z,27
2017-12-10T11:39:56.403Z,25
2017-12-10T11:42:14.761Z,27
2017-12-10T11:44:38.838Z,26
2017-12-10T11:46:53.798Z,25
2017-12-10T11:49:00.395Z,25
2017-12-10T11:51:16.185Z,25
2017-12-10T11:53:27.040Z,25
2017-12-10T11:55:36.023Z,25
2017-12-10T11:57:48.797Z,27
2017-12-10T12:00:00.618Z,26
2017-12-10T12:02:11.558Z,27
2017-12-10T12:04:22.024Z,27
2017-12-10T12:06:33.120Z,25
2017-12-10T12:08:45.277Z,25
2017-12-10T12:11:03.500Z,27
2017-12-10T12:13:14.618Z,27
2017-12-10T12:15:20.978Z,26
2017-12-10T12:17:28.237Z,25
2017-12-10T12:19:37.024Z,25
2017-12-10T12:21:46.662Z,26
2017-12-10T12:23:56.226Z,25
2017-12-10T12:26:05.237Z,25
2017-12-10T12:28:10.861Z,27
2017-12-10T12:30:16.967Z,27
2017-12-10T12:32:26.607Z,26
2017-12-10T12:34:34.666Z,25
2017-12-10T12:36:49.019Z,27
2017-12-10T12:38:57.079Z,25
2017-12-10T12:41:04.596Z,27
2017-12-10T12:43:21.656Z,25
2017-12-10T12:45:29.646Z,26
2017-12-10T12:48:03.585Z,27
2017-12-10T12:50:11.625Z,27
2017-12-10T12:52:32.240Z,26
2017-12-10T12:54:40.824Z,25
2017-12-10T12:56:48.504Z,25
2017-12-10T12:58:57.872Z,24
2017-12-10T13:01:03.684Z,25
2017-12-10T13:03:11.640Z,26
2017-12-10T13:05:17.025Z,24
2017-12-10T13:09:22.841Z,27
2017-12-10T13:11:34.767Z,25
2017-12-10T13:13:43.216Z,27
2017-12-10T13:15:51.624Z,24
2017-12-10T13:18:14.533Z,26
2017-12-10T13:20:37.597Z,99
2017-12-10T13:23:01.879Z,99
2017-12-10T13:25:15.934Z,99
2017-12-10T13:27:27.597Z,97
2017-12-10T13:32:06.204Z,98
2017-12-10T13:36:16.346Z,97
2017-12-10T13:38:36.159Z,97
2017-12-10T13:40:55.694Z,99
2017-12-10T13:43:19.500Z,97
2017-12-10T13:45:34.762Z,97
2017-12-10T13:47:43.343Z,97
2017-12-10T13:49:52.431Z,99
2017-12-10T13:52:04.998Z,97
2017-12-10T13:54:27.821Z,96
2017-12-10T13:56:38.124Z,95
2017-12-10T13:58:46.162Z,97
2017-12-10T14:03:20.826Z,97
2017-12-10T14:05:33.299Z,97
2017-12-10T14:07:41.158Z,97
2017-12-10T14:12:09.437Z,96
2017-12-10T14:14:15.260Z,95
2017-12-10T14:16:22.662Z,97
2017-12-10T14:20:38.182Z,96
2017-12-10T14:22:43.317Z,95
2017-12-10T14:24:48.757Z,97
2017-12-10T14:26:56.756Z,97
